createdAt,value
2023-05-13T00:04:21.157Z,10.82
2023-05-13T00:14:23.098Z,11.02
2023-05-13T00:24:24.872Z,10.63
2023-05-13T00:34:26.783Z,9.25
2023-05-13T00:44:28.916Z,13.95
2023-05-13T00:54:30.814Z,14.75
2023-05-13T01:04:57.585Z,13.93
2023-05-13T01:15:09.675Z,13.27
2023-05-13T01:25:12.741Z,10.88
2023-05-13T01:35:16.085Z,12.73
2023-05-13T01:45:20.141Z,14.23
2023-05-13T01:55:22.064Z,13.18
2023-05-13T02:05:24.843Z,13.38
2023-05-13T02:15:27.100Z,13.73
2023-05-13T02:25:29.066Z,13.55
2023-05-13T02:35:30.892Z,10.13
2023-05-13T02:45:35.093Z,12.13
2023-05-13T02:55:37.126Z,10.88
2023-05-13T03:05:39.063Z,12.05
2023-05-13T03:15:44.123Z,13.02
2023-05-13T03:25:46.637Z,13.40
2023-05-13T03:35:49.100Z,13.73
2023-05-13T03:45:53.694Z,13.88
2023-05-13T03:55:57.652Z,18.33
2023-05-13T04:05:59.597Z,18.52
2023-05-13T04:16:01.805Z,18.27
2023-05-13T04:26:03.756Z,16.92
2023-05-13T04:36:06.081Z,16.15
2023-05-13T04:46:08.025Z,13.40
2023-05-13T04:56:10.021Z,15.88
2023-05-13T05:06:12.819Z,14.30
2023-05-13T05:16:15.995Z,14.55
2023-05-13T05:26:18.020Z,12.30
2023-05-13T05:36:20.548Z,11.73
2023-05-13T05:46:22.578Z,12.05
2023-05-13T05:56:24.969Z,13.27
2023-05-13T06:06:26.964Z,13.50
2023-05-13T06:16:29.080Z,16.40
2023-05-13T06:26:31.836Z,15.02
2023-05-13T06:36:34.173Z,13.05
2023-05-13T06:46:38.039Z,14.70
2023-05-13T06:56:40.028Z,13.02
2023-05-13T07:06:41.941Z,13.75
2023-05-13T07:16:43.781Z,12.70
2023-05-13T07:26:45.676Z,9.38
2023-05-13T07:36:47.590Z,8.50
2023-05-13T07:46:49.631Z,7.15
2023-05-13T07:56:51.597Z,7.05
2023-05-13T08:06:53.503Z,6.72
2023-05-13T08:16:55.687Z,3.45
2023-05-13T08:26:57.700Z,4.65
2023-05-13T08:36:59.523Z,3.72
2023-05-13T08:47:37.752Z,6.13
2023-05-13T08:57:39.603Z,4.15
2023-05-13T09:07:41.953Z,3.70
2023-05-13T09:17:45.735Z,3.20
2023-05-13T09:27:49.235Z,3.78
2023-05-13T09:37:51.309Z,3.42
2023-05-13T09:47:54.814Z,3.20
2023-05-13T09:57:56.747Z,3.20
2023-05-13T10:08:00.761Z,3.85
2023-05-13T10:18:04.194Z,2.47
2023-05-13T10:28:09.665Z,3.60
2023-05-13T10:38:22.264Z,2.60
2023-05-13T10:48:24.593Z,3.13
2023-05-13T10:58:34.108Z,4.07
2023-05-13T11:08:40.999Z,3.05
2023-05-13T11:18:43.326Z,4.00
2023-05-13T11:28:54.427Z,3.08
2023-05-13T11:39:04.632Z,3.78
2023-05-13T11:49:07.462Z,12.68
2023-05-13T11:59:13.818Z,4.40
2023-05-13T12:09:15.683Z,3.45
2023-05-13T12:19:19.529Z,4.88
2023-05-13T12:29:22.860Z,4.28
2023-05-13T12:39:24.743Z,4.78
2023-05-13T12:49:26.602Z,5.88
2023-05-13T12:59:28.477Z,3.63
2023-05-13T13:09:30.829Z,4.22
2023-05-13T13:19:32.778Z,3.88
2023-05-13T13:29:34.884Z,3.75
2023-05-13T13:39:36.788Z,8.27
2023-05-13T13:49:38.677Z,2.83
2023-05-13T13:59:40.583Z,3.67
2023-05-13T14:09:42.409Z,2.70
2023-05-13T14:19:44.249Z,3.85
2023-05-13T14:29:47.619Z,2.45
2023-05-13T14:39:50.289Z,3.47
2023-05-13T14:49:52.290Z,4.50
2023-05-13T14:59:54.111Z,5.35
2023-05-13T15:09:55.973Z,3.78
2023-05-13T15:19:57.862Z,3.92
2023-05-13T15:29:59.741Z,4.97
2023-05-13T15:40:02.349Z,2.90
2023-05-13T15:50:04.501Z,4.32
2023-05-13T16:00:07.154Z,3.03
2023-05-13T16:10:09.945Z,4.28
2023-05-13T16:20:12.383Z,4.75
2023-05-13T16:30:14.363Z,3.33
2023-05-13T16:40:16.711Z,3.78
2023-05-13T16:50:18.690Z,3.28
2023-05-13T17:00:20.908Z,5.40
2023-05-13T17:10:23.302Z,4.80
2023-05-13T17:20:25.619Z,4.72
2023-05-13T17:30:27.425Z,4.45
2023-05-13T17:40:29.976Z,5.03
2023-05-13T17:50:31.857Z,4.75
2023-05-13T18:00:33.740Z,4.40
2023-05-13T18:10:35.555Z,10.75
2023-05-13T18:20:37.372Z,22.35
2023-05-13T18:30:39.268Z,8.45
2023-05-13T18:40:41.519Z,7.00
2023-05-13T18:50:43.420Z,6.85
2023-05-13T19:00:45.375Z,5.45
2023-05-13T19:10:47.331Z,9.93
2023-05-13T19:20:49.209Z,11.13
2023-05-13T19:30:51.111Z,8.38
2023-05-13T19:40:53.297Z,6.97
2023-05-13T19:50:55.236Z,6.35
2023-05-13T20:00:57.160Z,9.05
2023-05-13T20:10:59.602Z,7.30
2023-05-13T20:21:01.921Z,8.43
2023-05-13T20:31:04.559Z,8.25
2023-05-13T20:41:06.400Z,7.85
2023-05-13T20:51:08.372Z,7.85
2023-05-13T21:01:10.298Z,7.85
2023-05-13T21:11:12.353Z,8.68
2023-05-13T21:21:14.176Z,6.35
2023-05-13T21:31:16.655Z,8.65
2023-05-13T21:41:18.702Z,12.27
2023-05-13T21:51:20.573Z,10.90
2023-05-13T22:01:22.490Z,7.28
2023-05-13T22:11:24.698Z,8.82
2023-05-13T22:21:26.525Z,7.95
2023-05-13T22:31:28.378Z,7.47
2023-05-13T22:41:30.291Z,7.20
2023-05-13T22:51:32.209Z,6.45
2023-05-13T23:01:34.157Z,6.57
2023-05-13T23:11:36.876Z,7.40
2023-05-13T23:21:38.671Z,9.40
2023-05-13T23:31:40.838Z,9.65
2023-05-13T23:41:43.465Z,8.40
2023-05-13T23:51:45.226Z,7.75
